createdAt,value
2023-03-02T00:01:56.954Z,78.91
2023-03-02T00:04:47.953Z,78.55
2023-03-02T00:07:42.731Z,78.55
2023-03-02T00:10:11.938Z,78.60
2023-03-02T00:12:40.467Z,78.53
2023-03-02T00:15:09.519Z,78.34
2023-03-02T00:17:38.074Z,78.21
2023-03-02T00:20:10.493Z,78.39
2023-03-02T00:22:41.135Z,78.69
2023-03-02T00:25:10.399Z,78.78
2023-03-02T00:27:39.424Z,78.97
2023-03-02T00:30:09.360Z,78.74
2023-03-02T00:32:37.889Z,78.73
2023-03-02T00:35:07.129Z,78.74
2023-03-02T00:37:36.916Z,78.62
2023-03-02T00:40:07.595Z,78.54
2023-03-02T00:42:38.966Z,78.41
2023-03-02T00:45:08.087Z,78.36
2023-03-02T00:47:37.634Z,78.25
2023-03-02T00:50:06.852Z,78.04
2023-03-02T00:52:35.220Z,78.06
2023-03-02T00:55:03.867Z,77.97
2023-03-02T00:57:32.176Z,77.85
2023-03-02T01:00:01.276Z,77.84
2023-03-02T01:02:35.301Z,77.66
2023-03-02T01:05:05.376Z,77.43
2023-03-02T01:07:34.956Z,77.69
2023-03-02T01:10:03.904Z,77.83
2023-03-02T01:12:33.078Z,77.77
2023-03-02T01:15:02.522Z,77.82
2023-03-02T01:17:30.904Z,77.71
2023-03-02T01:19:59.421Z,77.64
2023-03-02T01:22:27.920Z,77.62
2023-03-02T01:24:56.282Z,77.58
2023-03-02T01:27:24.621Z,77.42
2023-03-02T01:29:53.037Z,77.35
2023-03-02T01:32:21.669Z,77.88
2023-03-02T01:34:50.036Z,77.54
2023-03-02T01:37:18.553Z,78.07
2023-03-02T01:39:47.396Z,78.30
2023-03-02T01:42:16.440Z,78.14
2023-03-02T01:44:47.747Z,78.13
2023-03-02T01:47:37.106Z,78.14
2023-03-02T01:50:23.485Z,78.10
2023-03-02T01:52:55.775Z,78.51
2023-03-02T01:55:29.878Z,78.93
2023-03-02T01:58:00.124Z,78.86
2023-03-02T02:00:32.998Z,79.07
2023-03-02T02:03:09.598Z,78.98
2023-03-02T02:05:40.713Z,79.10
2023-03-02T02:08:09.156Z,78.94
2023-03-02T02:10:38.691Z,79.88
2023-03-02T02:13:11.146Z,79.73
2023-03-02T02:15:41.204Z,80.44
2023-03-02T02:18:09.975Z,80.68
2023-03-02T02:20:45.514Z,80.14
2023-03-02T02:23:18.618Z,80.55
2023-03-02T02:25:53.104Z,80.98
2023-03-02T02:28:30.890Z,81.59
2023-03-02T02:31:18.070Z,81.39
2023-03-02T02:33:52.946Z,81.75
2023-03-02T02:36:33.893Z,82.43
2023-03-02T02:39:07.320Z,81.88
2023-03-02T02:41:39.356Z,81.72
2023-03-02T02:44:14.848Z,82.60
2023-03-02T02:46:44.970Z,82.50
2023-03-02T02:49:33.665Z,82.91
2023-03-02T02:52:04.148Z,83.12
2023-03-02T02:54:34.510Z,82.49
2023-03-02T02:57:04.324Z,82.20
2023-03-02T02:59:37.707Z,82.22
2023-03-02T03:02:06.192Z,81.92
2023-03-02T03:04:34.690Z,81.65
2023-03-02T03:07:05.380Z,81.77
2023-03-02T03:09:34.920Z,81.51
2023-03-02T03:12:14.377Z,81.49
2023-03-02T03:14:44.017Z,81.66
2023-03-02T03:17:12.900Z,81.82
2023-03-02T03:19:47.406Z,81.70
2023-03-02T03:22:16.640Z,82.43
2023-03-02T03:24:46.152Z,82.69
2023-03-02T03:27:16.435Z,82.24
2023-03-02T03:29:48.490Z,81.69
2023-03-02T03:32:19.267Z,81.24
2023-03-02T03:34:48.692Z,80.93
2023-03-02T03:37:27.020Z,81.15
2023-03-02T03:39:55.967Z,80.72
2023-03-02T03:42:24.384Z,80.85
2023-03-02T03:44:53.361Z,80.97
2023-03-02T03:47:22.877Z,80.70
2023-03-02T03:49:51.766Z,80.59
2023-03-02T03:52:30.846Z,80.93
2023-03-02T03:55:06.393Z,81.15
2023-03-02T03:57:34.841Z,81.20
2023-03-02T04:00:08.904Z,81.29
2023-03-02T04:02:42.600Z,81.86
2023-03-02T04:05:13.000Z,81.71
2023-03-02T04:07:42.064Z,81.69
2023-03-02T04:10:12.493Z,82.58
2023-03-02T04:12:42.829Z,82.65
2023-03-02T04:15:16.547Z,82.33
2023-03-02T04:17:46.501Z,82.71
2023-03-02T04:20:18.693Z,82.92
2023-03-02T04:22:52.949Z,83.04
2023-03-02T04:25:24.430Z,83.44
2023-03-02T04:27:55.887Z,83.08
2023-03-02T04:30:27.980Z,82.36
2023-03-02T04:32:57.699Z,82.22
2023-03-02T04:35:28.374Z,82.40
2023-03-02T04:37:56.841Z,82.40
2023-03-02T04:40:25.665Z,82.46
2023-03-02T04:42:53.990Z,82.55
2023-03-02T04:45:22.435Z,82.52
2023-03-02T04:47:51.461Z,83.16
2023-03-02T04:50:19.858Z,83.32
2023-03-02T04:52:48.922Z,83.59
2023-03-02T04:55:23.082Z,83.63
2023-03-02T04:57:51.904Z,83.62
2023-03-02T05:00:21.207Z,83.28
2023-03-02T05:02:50.097Z,83.29
2023-03-02T05:05:23.309Z,83.25
2023-03-02T05:07:52.669Z,83.16
2023-03-02T05:10:22.472Z,82.86
2023-03-02T05:13:05.152Z,82.37
2023-03-02T05:15:36.147Z,82.20
2023-03-02T05:18:06.744Z,81.89
2023-03-02T05:20:35.512Z,81.47
2023-03-02T05:23:07.349Z,81.04
2023-03-02T05:25:37.630Z,80.97
2023-03-02T05:28:06.282Z,81.30
2023-03-02T05:30:37.873Z,81.41
2023-03-02T05:33:06.727Z,81.52
2023-03-02T05:35:35.711Z,81.70
2023-03-02T05:38:05.288Z,82.00
2023-03-02T05:40:34.072Z,81.86
2023-03-02T05:43:02.521Z,81.94
2023-03-02T05:45:37.738Z,81.91
2023-03-02T05:48:06.645Z,81.84
2023-03-02T05:50:35.291Z,81.75
2023-03-02T05:53:04.074Z,81.64
2023-03-02T05:55:37.358Z,81.61
2023-03-02T05:58:14.617Z,81.30
2023-03-02T06:00:44.058Z,81.43
2023-03-02T06:03:12.559Z,81.47
2023-03-02T06:05:41.160Z,81.55
2023-03-02T06:08:10.034Z,81.49
2023-03-02T06:10:38.387Z,81.39
2023-03-02T06:13:06.729Z,81.17
2023-03-02T06:15:35.798Z,80.90
2023-03-02T06:18:06.169Z,80.53
2023-03-02T06:20:34.596Z,80.09
2023-03-02T06:23:02.885Z,80.50
2023-03-02T06:25:31.680Z,80.11
2023-03-02T06:27:59.955Z,80.11
2023-03-02T06:30:28.526Z,79.84
2023-03-02T06:32:56.904Z,80.01
2023-03-02T06:35:25.455Z,79.77
2023-03-02T06:37:54.090Z,80.03
2023-03-02T06:40:22.366Z,79.74
2023-03-02T06:42:51.282Z,79.13
2023-03-02T06:45:19.803Z,78.49
2023-03-02T06:47:48.409Z,77.66
2023-03-02T06:50:16.796Z,78.09
2023-03-02T06:52:45.093Z,77.91
2023-03-02T06:55:13.610Z,77.96
2023-03-02T06:57:42.005Z,78.25
2023-03-02T07:00:18.373Z,77.15
2023-03-02T07:02:50.282Z,76.43
2023-03-02T07:05:19.675Z,76.10
2023-03-02T07:07:48.109Z,75.38
2023-03-02T07:10:16.703Z,75.30
2023-03-02T07:12:45.126Z,74.79
2023-03-02T07:15:14.524Z,74.00
2023-03-02T07:17:44.949Z,73.66
2023-03-02T07:20:16.649Z,73.35
2023-03-02T07:22:45.433Z,73.74
2023-03-02T07:25:14.354Z,72.43
2023-03-02T07:27:43.024Z,71.87
2023-03-02T07:30:12.227Z,71.97
2023-03-02T07:32:41.244Z,72.34
2023-03-02T07:35:10.221Z,72.53
2023-03-02T07:37:38.840Z,72.57
2023-03-02T07:40:07.939Z,71.61
2023-03-02T07:42:36.826Z,70.27
2023-03-02T07:45:06.611Z,70.82
2023-03-02T07:47:35.001Z,70.81
2023-03-02T07:50:03.960Z,70.35
2023-03-02T07:52:32.337Z,70.12
2023-03-02T07:55:00.734Z,69.83
2023-03-02T07:57:29.132Z,69.20
2023-03-02T07:59:57.407Z,68.67
2023-03-02T08:02:25.925Z,68.27
2023-03-02T08:04:54.470Z,68.31
2023-03-02T08:07:22.855Z,68.31
2023-03-02T08:09:51.340Z,68.16
2023-03-02T08:12:19.734Z,67.54
2023-03-02T08:14:48.309Z,67.57
2023-03-02T08:17:16.710Z,67.56
2023-03-02T08:19:45.174Z,66.98
2023-03-02T08:22:13.593Z,66.36
2023-03-02T08:24:42.980Z,66.16
2023-03-02T08:27:15.853Z,66.02
2023-03-02T08:29:44.260Z,65.82
2023-03-02T08:32:12.769Z,65.16
2023-03-02T08:34:41.224Z,64.65
2023-03-02T08:37:09.652Z,64.46
2023-03-02T08:39:38.178Z,64.74
2023-03-02T08:42:06.492Z,64.52
2023-03-02T08:44:34.892Z,64.12
2023-03-02T08:47:03.415Z,63.77
2023-03-02T08:49:31.836Z,64.20
2023-03-02T08:52:00.903Z,64.06
2023-03-02T08:54:29.245Z,63.99
2023-03-02T08:56:57.703Z,64.15
2023-03-02T08:59:27.093Z,64.13
2023-03-02T09:01:55.599Z,63.85
2023-03-02T09:04:24.118Z,63.74
2023-03-02T09:06:52.555Z,63.78
2023-03-02T09:09:20.950Z,63.93
2023-03-02T09:11:49.377Z,64.05
2023-03-02T09:14:17.806Z,64.00
2023-03-02T09:16:47.196Z,64.37
2023-03-02T09:19:15.652Z,64.33
2023-03-02T09:21:44.085Z,64.15
2023-03-02T09:24:12.592Z,63.94
2023-03-02T09:26:41.058Z,63.88
2023-03-02T09:29:09.621Z,63.89
2023-03-02T09:31:38.659Z,63.87
2023-03-02T09:34:07.201Z,63.27
2023-03-02T09:36:36.791Z,62.98
2023-03-02T09:39:12.501Z,63.28
2023-03-02T09:42:12.275Z,62.84
2023-03-02T09:45:06.552Z,62.53
2023-03-02T09:47:56.521Z,60.16
2023-03-02T09:50:32.631Z,59.58
2023-03-02T09:53:24.550Z,58.53
2023-03-02T09:56:00.449Z,57.45
2023-03-02T09:58:36.097Z,57.32
2023-03-02T10:01:12.565Z,57.11
2023-03-02T10:03:51.454Z,57.72
2023-03-02T10:06:20.085Z,56.94
2023-03-02T10:08:54.170Z,56.74
2023-03-02T10:11:25.619Z,56.13
2023-03-02T10:13:53.924Z,56.39
2023-03-02T10:17:02.057Z,56.44
2023-03-02T10:19:47.960Z,55.75
2023-03-02T10:22:24.282Z,56.03
2023-03-02T10:25:13.384Z,55.72
2023-03-02T10:27:51.968Z,55.52
2023-03-02T10:30:35.600Z,55.08
2023-03-02T10:33:12.356Z,55.48
2023-03-02T10:35:48.546Z,54.59
2023-03-02T10:38:19.982Z,54.30
2023-03-02T10:40:48.539Z,54.11
2023-03-02T10:43:30.461Z,53.69
2023-03-02T10:46:04.836Z,53.06
2023-03-02T10:48:49.342Z,53.32
2023-03-02T10:51:29.724Z,52.99
2023-03-02T10:54:05.024Z,52.32
2023-03-02T10:56:34.862Z,52.62
2023-03-02T10:59:19.768Z,53.09
2023-03-02T11:02:18.572Z,53.49
2023-03-02T11:04:47.177Z,53.01
2023-03-02T11:07:18.982Z,53.22
2023-03-02T11:10:04.980Z,52.99
2023-03-02T11:12:37.090Z,52.83
2023-03-02T11:15:28.742Z,52.62
2023-03-02T11:18:34.412Z,52.97
2023-03-02T11:21:06.654Z,52.02
2023-03-02T11:24:17.219Z,52.13
2023-03-02T11:26:50.829Z,52.04
2023-03-02T11:29:31.951Z,51.81
2023-03-02T11:32:11.859Z,52.00
2023-03-02T11:34:56.768Z,52.06
2023-03-02T11:37:45.644Z,51.90
2023-03-02T11:40:36.434Z,51.80
2023-03-02T11:43:05.210Z,51.31
2023-03-02T11:45:37.188Z,51.59
2023-03-02T11:48:24.085Z,51.69
2023-03-02T11:50:57.591Z,51.30
2023-03-02T11:53:51.901Z,51.23
2023-03-02T11:56:20.468Z,51.38
2023-03-02T11:58:55.114Z,51.36
2023-03-02T12:01:27.034Z,51.12
2023-03-02T12:04:08.254Z,50.96
2023-03-02T12:06:42.314Z,50.63
2023-03-02T12:09:22.846Z,50.66
2023-03-02T12:12:18.609Z,50.83
2023-03-02T12:14:47.028Z,50.44
2023-03-02T12:17:27.326Z,50.27
2023-03-02T12:20:10.151Z,50.65
2023-03-02T12:22:39.102Z,50.48
2023-03-02T12:25:27.369Z,50.62
2023-03-02T12:27:58.800Z,50.78
2023-03-02T12:30:28.656Z,50.85
2023-03-02T12:33:11.141Z,50.82
2023-03-02T12:35:40.336Z,50.72
2023-03-02T12:38:17.629Z,50.53
2023-03-02T12:41:04.295Z,50.57
2023-03-02T12:43:35.583Z,50.37
2023-03-02T12:46:27.853Z,50.20
2023-03-02T12:49:15.548Z,50.11
2023-03-02T12:51:55.048Z,49.75
2023-03-02T12:54:25.988Z,49.96
2023-03-02T12:57:14.260Z,50.33
2023-03-02T12:59:43.682Z,50.20
2023-03-02T13:02:17.654Z,49.86
2023-03-02T13:05:03.655Z,49.84
2023-03-02T13:07:38.271Z,49.59
2023-03-02T13:10:27.034Z,49.85
2023-03-02T13:12:55.532Z,49.59
2023-03-02T13:15:24.293Z,49.55
2023-03-02T13:17:58.209Z,49.75
2023-03-02T13:20:30.424Z,49.94
2023-03-02T13:22:59.269Z,49.74
2023-03-02T13:25:30.640Z,49.73
2023-03-02T13:28:07.538Z,49.24
2023-03-02T13:30:41.923Z,49.24
2023-03-02T13:33:22.799Z,49.53
2023-03-02T13:35:52.725Z,49.94
2023-03-02T13:38:26.605Z,50.66
2023-03-02T13:40:56.081Z,50.53
2023-03-02T13:43:34.269Z,50.34
2023-03-02T13:46:24.407Z,50.19
2023-03-02T13:49:10.774Z,49.92
2023-03-02T13:51:45.808Z,49.62
2023-03-02T13:54:25.732Z,49.56
2023-03-02T13:56:55.566Z,49.87
2023-03-02T13:59:24.355Z,49.16
2023-03-02T14:01:53.387Z,49.54
2023-03-02T14:04:23.704Z,49.74
2023-03-02T14:06:54.858Z,49.05
2023-03-02T14:09:23.264Z,49.12
2023-03-02T14:11:55.422Z,49.14
2023-03-02T14:14:26.615Z,49.59
2023-03-02T14:16:58.461Z,49.73
2023-03-02T14:19:27.284Z,49.81
2023-03-02T14:21:55.631Z,50.06
2023-03-02T14:24:24.247Z,49.95
2023-03-02T14:26:52.658Z,49.62
2023-03-02T14:29:28.598Z,49.44
2023-03-02T14:32:04.150Z,49.76
2023-03-02T14:34:35.985Z,50.05
2023-03-02T14:37:08.050Z,49.86
2023-03-02T14:39:39.372Z,49.91
2023-03-02T14:42:20.004Z,50.09
2023-03-02T14:44:50.369Z,50.04
2023-03-02T14:47:19.805Z,50.16
2023-03-02T14:49:49.457Z,50.24
2023-03-02T14:52:26.544Z,50.32
2023-03-02T14:54:59.049Z,50.75
2023-03-02T14:57:29.803Z,50.81
2023-03-02T15:00:00.130Z,50.89
2023-03-02T15:02:28.916Z,50.94
2023-03-02T15:04:57.795Z,51.24
2023-03-02T15:07:28.200Z,50.95
2023-03-02T15:09:58.294Z,51.45
2023-03-02T15:12:27.362Z,51.36
2023-03-02T15:14:57.674Z,51.69
2023-03-02T15:17:26.887Z,51.92
2023-03-02T15:19:55.231Z,51.87
2023-03-02T15:22:23.682Z,51.88
2023-03-02T15:24:52.056Z,52.13
2023-03-02T15:27:22.850Z,52.29
2023-03-02T15:29:51.376Z,52.53
2023-03-02T15:32:20.267Z,52.84
2023-03-02T15:34:48.609Z,52.96
2023-03-02T15:37:17.303Z,53.36
2023-03-02T15:39:45.818Z,53.93
2023-03-02T15:42:14.217Z,54.94
2023-03-02T15:44:42.630Z,55.52
2023-03-02T15:47:11.402Z,55.83
2023-03-02T15:49:40.031Z,56.10
2023-03-02T15:52:10.017Z,56.50
2023-03-02T15:54:38.381Z,56.58
2023-03-02T15:57:07.463Z,56.84
2023-03-02T15:59:36.079Z,56.97
2023-03-02T16:02:04.646Z,56.89
2023-03-02T16:04:34.219Z,57.01
2023-03-02T16:07:02.854Z,57.06
2023-03-02T16:09:31.612Z,57.50
2023-03-02T16:12:00.095Z,57.83
2023-03-02T16:14:28.826Z,58.01
2023-03-02T16:16:57.346Z,58.11
2023-03-02T16:19:25.901Z,58.17
2023-03-02T16:21:54.270Z,58.75
2023-03-02T16:24:22.732Z,59.34
2023-03-02T16:26:53.227Z,59.39
2023-03-02T16:29:24.282Z,59.66
2023-03-02T16:31:53.536Z,59.87
2023-03-02T16:34:21.930Z,60.18
2023-03-02T16:36:50.297Z,60.59
2023-03-02T16:39:18.767Z,61.24
2023-03-02T16:41:47.541Z,61.89
2023-03-02T16:44:17.485Z,62.20
2023-03-02T16:46:46.426Z,62.58
2023-03-02T16:49:15.035Z,63.39
2023-03-02T16:51:44.042Z,63.86
2023-03-02T16:54:16.228Z,63.96
2023-03-02T16:56:47.528Z,64.38
2023-03-02T16:59:18.525Z,64.40
2023-03-02T17:01:46.958Z,64.51
2023-03-02T17:04:18.538Z,64.16
2023-03-02T17:07:03.127Z,64.12
2023-03-02T17:09:34.521Z,64.01
2023-03-02T17:12:03.384Z,64.69
2023-03-02T17:14:31.743Z,64.66
2023-03-02T17:17:01.484Z,65.70
2023-03-02T17:19:29.994Z,65.64
2023-03-02T17:22:03.623Z,65.39
2023-03-02T17:24:33.412Z,66.22
2023-03-02T17:27:02.096Z,65.91
2023-03-02T17:29:30.516Z,66.11
2023-03-02T17:31:58.948Z,66.16
2023-03-02T17:34:31.294Z,66.07
2023-03-02T17:37:00.937Z,66.59
2023-03-02T17:39:29.540Z,66.45
2023-03-02T17:41:57.941Z,66.44
2023-03-02T17:44:27.660Z,66.96
2023-03-02T17:46:56.025Z,66.88
2023-03-02T17:49:24.381Z,67.33
2023-03-02T17:51:52.783Z,67.28
2023-03-02T17:54:21.305Z,67.64
2023-03-02T17:56:49.678Z,67.74
2023-03-02T17:59:18.078Z,68.06
2023-03-02T18:01:46.513Z,68.55
2023-03-02T18:04:15.088Z,68.32
2023-03-02T18:06:43.594Z,68.56
2023-03-02T18:09:12.190Z,70.00
2023-03-02T18:11:43.955Z,69.53
2023-03-02T18:14:17.682Z,68.74
2023-03-02T18:16:46.664Z,68.60
2023-03-02T18:19:15.122Z,68.68
2023-03-02T18:21:43.509Z,69.60
2023-03-02T18:24:12.061Z,69.49
2023-03-02T18:26:40.887Z,69.95
2023-03-02T18:29:09.560Z,69.27
2023-03-02T18:31:38.078Z,70.01
2023-03-02T18:34:06.685Z,69.81
2023-03-02T18:36:35.152Z,70.53
2023-03-02T18:39:04.248Z,70.65
2023-03-02T18:41:32.962Z,70.90
2023-03-02T18:44:02.780Z,71.35
2023-03-02T18:46:33.315Z,71.03
2023-03-02T18:49:01.920Z,71.23
2023-03-02T18:51:31.556Z,71.34
2023-03-02T18:54:00.103Z,72.35
2023-03-02T18:56:28.608Z,73.51
2023-03-02T18:58:57.065Z,73.72
2023-03-02T19:01:25.530Z,73.82
2023-03-02T19:03:56.954Z,74.52
2023-03-02T19:06:25.555Z,73.96
2023-03-02T19:08:54.354Z,73.66
2023-03-02T19:11:23.028Z,73.59
2023-03-02T19:13:52.107Z,73.49
2023-03-02T19:16:20.832Z,73.47
2023-03-02T19:18:50.233Z,72.98
2023-03-02T19:21:19.240Z,73.07
2023-03-02T19:23:48.281Z,73.19
2023-03-02T19:26:17.412Z,72.79
2023-03-02T19:28:46.513Z,72.66
2023-03-02T19:31:16.108Z,73.37
2023-03-02T19:33:45.500Z,74.32
2023-03-02T19:36:14.598Z,74.57
2023-03-02T19:38:44.615Z,74.01
2023-03-02T19:41:16.793Z,74.09
2023-03-02T19:43:46.223Z,74.23
2023-03-02T19:46:16.203Z,74.45
2023-03-02T19:48:45.129Z,74.66
2023-03-02T19:51:15.411Z,74.50
2023-03-02T19:53:46.111Z,74.47
2023-03-02T19:56:16.369Z,74.85
2023-03-02T19:58:50.398Z,75.10
2023-03-02T20:01:24.834Z,74.52
2023-03-02T20:03:54.681Z,74.56
2023-03-02T20:06:26.365Z,74.64
2023-03-02T20:08:54.835Z,74.56
2023-03-02T20:11:25.220Z,74.90
2023-03-02T20:13:53.708Z,74.92
2023-03-02T20:16:23.016Z,74.73
2023-03-02T20:18:52.519Z,75.01
2023-03-02T20:21:21.427Z,74.93
2023-03-02T20:23:50.663Z,75.08
2023-03-02T20:26:19.484Z,75.03
2023-03-02T20:28:48.552Z,75.07
2023-03-02T20:31:18.193Z,74.97
2023-03-02T20:33:50.230Z,74.81
2023-03-02T20:36:26.837Z,74.96
2023-03-02T20:39:09.720Z,75.06
2023-03-02T20:41:38.627Z,74.89
2023-03-02T20:44:08.032Z,75.18
2023-03-02T20:46:40.615Z,74.87
2023-03-02T20:49:10.924Z,74.84
2023-03-02T20:51:41.128Z,74.66
2023-03-02T20:54:10.146Z,74.67
2023-03-02T20:56:38.563Z,74.50
2023-03-02T20:59:07.096Z,74.75
2023-03-02T21:01:35.794Z,74.74
2023-03-02T21:04:04.557Z,74.73
2023-03-02T21:06:34.816Z,74.64
2023-03-02T21:09:05.926Z,74.65
2023-03-02T21:11:35.394Z,74.47
2023-03-02T21:14:04.083Z,74.61
2023-03-02T21:16:37.225Z,74.59
2023-03-02T21:19:08.607Z,74.51
2023-03-02T21:21:42.095Z,74.54
2023-03-02T21:24:13.516Z,74.59
2023-03-02T21:26:44.391Z,74.41
2023-03-02T21:29:13.655Z,74.46
2023-03-02T21:31:43.960Z,74.40
2023-03-02T21:34:13.533Z,74.32
2023-03-02T21:36:43.539Z,74.29
2023-03-02T21:39:12.208Z,74.34
2023-03-02T21:41:40.753Z,74.01
2023-03-02T21:44:09.938Z,73.88
2023-03-02T21:46:39.687Z,73.74
2023-03-02T21:49:08.228Z,73.63
2023-03-02T21:51:37.168Z,73.56
2023-03-02T21:54:05.748Z,73.80
2023-03-02T21:56:34.248Z,73.79
2023-03-02T21:59:04.188Z,73.79
2023-03-02T22:01:33.979Z,73.59
2023-03-02T22:04:02.564Z,73.48
2023-03-02T22:06:33.248Z,73.55
2023-03-02T22:09:02.687Z,73.65
2023-03-02T22:11:34.839Z,73.79
2023-03-02T22:14:13.054Z,73.77
2023-03-02T22:16:45.212Z,73.85
2023-03-02T22:19:32.746Z,73.92
2023-03-02T22:22:03.469Z,73.60
2023-03-02T22:24:34.064Z,73.83
2023-03-02T22:27:21.168Z,73.68
2023-03-02T22:29:50.870Z,73.32
2023-03-02T22:32:24.114Z,73.42
2023-03-02T22:34:58.673Z,73.32
2023-03-02T22:37:29.354Z,73.25
2023-03-02T22:40:02.089Z,73.12
2023-03-02T22:42:31.216Z,73.17
2023-03-02T22:45:06.787Z,73.21
2023-03-02T22:47:35.214Z,73.09
2023-03-02T22:50:22.529Z,72.55
2023-03-02T22:52:51.837Z,72.42
2023-03-02T22:55:35.660Z,72.80
2023-03-02T22:58:30.954Z,72.53
2023-03-02T23:01:00.933Z,72.41
2023-03-02T23:03:41.018Z,72.43
2023-03-02T23:06:47.371Z,72.47
2023-03-02T23:09:21.176Z,72.61
2023-03-02T23:11:51.128Z,72.61
2023-03-02T23:14:30.177Z,73.04
2023-03-02T23:17:22.260Z,72.94
2023-03-02T23:19:51.529Z,73.00
2023-03-02T23:22:20.077Z,73.26
2023-03-02T23:24:48.647Z,73.00
2023-03-02T23:27:17.084Z,73.11
2023-03-02T23:29:45.543Z,73.37
2023-03-02T23:32:14.703Z,73.18
2023-03-02T23:34:43.416Z,73.24
2023-03-02T23:37:12.068Z,73.14
2023-03-02T23:39:40.542Z,73.22
2023-03-02T23:42:09.364Z,73.16
2023-03-02T23:44:37.821Z,73.12
2023-03-02T23:47:06.291Z,73.14
2023-03-02T23:49:34.736Z,73.06
2023-03-02T23:52:03.774Z,72.93
2023-03-02T23:54:32.183Z,72.86
2023-03-02T23:57:00.671Z,72.64
2023-03-02T23:59:29.216Z,72.96
